This is the latest recevied weather packets stored in our database for station/object K7SPS-10. If no packets are shown the sender has not sent any weather packets the latest 10 day(s).
| Time | Temp. | Humidity | Pressure | Rain* | Wind** | Luminosity | Snow |
|---|---|---|---|---|---|---|---|
| 1777646374 | 10° C | 73% | 1021.8 hPa | 0 mm | - | 103 W/m² | - |
| 1777646071 | 10° C | 73% | 1022 hPa | 0 mm | - | 68 W/m² | - |
| 1777645767 | 10° C | 71% | 1022.1 hPa | 0 mm | - | 119 W/m² | - |
| 1777645465 | 10° C | 70% | 1022 hPa | 0 mm | - | 82 W/m² | - |
| 1777645160 | 10° C | 68% | 1021.7 hPa | 0 mm | - | 98 W/m² | - |
| 1777644857 | 8.33° C | 72% | 1021.7 hPa | 0 mm | - | 145 W/m² | - |
| 1777644555 | 7.78° C | 72% | 1022 hPa | 0 mm | - | 127 W/m² | - |
| 1777644251 | 9.44° C | 70% | 1022 hPa | 0 mm | - | 98 W/m² | - |
| 1777643947 | 8.89° C | 72% | 1021.7 hPa | 0 mm | - | 87 W/m² | - |
| 1777643645 | 8.33° C | 72% | 1021.6 hPa | 0 mm | - | 78 W/m² | - |
| 1777643342 | 8.89° C | 70% | 1021.3 hPa | 0 mm | - | 72 W/m² | - |
| 1777643038 | 8.89° C | 72% | 1021.6 hPa | 0 mm | - | 64 W/m² | - |
| 1777642735 | 7.78° C | 73% | 1021.5 hPa | 0 mm | - | 58 W/m² | - |
| 1777642432 | 7.22° C | 75% | 1021.3 hPa | 0 mm | - | 52 W/m² | - |
| 1777642128 | 6.67° C | 76% | 1021.2 hPa | 0 mm | - | 46 W/m² | - |
| 1777641824 | 6.67° C | 78% | 1021.3 hPa | 0 mm | - | 40 W/m² | - |
| 1777641520 | 5.56° C | 81% | 1021.3 hPa | 0 mm | - | 35 W/m² | - |
| 1777641215 | 5° C | 84% | 1021.2 hPa | 0 mm | - | 29 W/m² | - |
| 1777640912 | 4.44° C | 87% | 1021 hPa | 0 mm | - | 24 W/m² | - |
| 1777640609 | 3.89° C | 88% | 1020.9 hPa | 0 mm | - | 19 W/m² | - |
| 1777640305 | 3.89° C | 88% | 1021.1 hPa | 0 mm | - | 12 W/m² | - |
| 1777640001 | 3.89° C | 88% | 1020.9 hPa | 0 mm | - | 10 W/m² | - |
| 1777639699 | 3.89° C | 87% | 1020.7 hPa | 0 mm | - | 6 W/m² | - |
| 1777639397 | 3.89° C | 87% | 1020.8 hPa | 0 mm | - | 4 W/m² | - |
| 1777639096 | 3.89° C | 86% | 1020.7 hPa | 0 mm | - | 3 W/m² | - |
* Rain latest hour (hover to see other rain measurements)
** Current wind speed in m/s (hover to see current wind gust speed)